createdAt,value
2019-06-01T00:08:22.114Z,8.90
2019-06-01T00:18:23.655Z,8.71
2019-06-01T00:28:25.090Z,8.61
2019-06-01T00:38:32.317Z,8.74
2019-06-01T00:48:33.942Z,8.50
2019-06-01T00:58:35.392Z,8.48
2019-06-01T01:08:36.954Z,8.38
2019-06-01T01:18:38.397Z,8.34
2019-06-01T01:28:40.027Z,8.08
2019-06-01T01:38:41.563Z,8.00
2019-06-01T01:48:42.999Z,7.90
2019-06-01T01:58:44.459Z,7.82
2019-06-01T02:08:46.111Z,7.57
2019-06-01T02:18:47.549Z,7.53
2019-06-01T02:28:48.967Z,7.73
2019-06-01T02:38:50.466Z,7.85
2019-06-01T02:48:51.909Z,7.74
2019-06-01T02:58:54.553Z,7.72
2019-06-01T03:08:59.772Z,7.47
2019-06-01T03:19:02.012Z,7.33
2019-06-01T03:29:05.149Z,7.24
2019-06-01T03:39:08.236Z,7.19
2019-06-01T03:49:09.970Z,7.30
2019-06-01T03:59:12.907Z,7.40
2019-06-01T04:09:14.334Z,7.49
2019-06-01T04:19:15.975Z,7.57
2019-06-01T04:29:17.398Z,7.48
2019-06-01T04:39:18.828Z,7.66
2019-06-01T04:49:20.255Z,8.00
2019-06-01T04:59:21.697Z,8.40
2019-06-01T05:09:23.113Z,8.70
2019-06-01T05:19:24.561Z,9.18
2019-06-01T05:29:25.975Z,9.67
2019-06-01T05:39:27.533Z,12.63
2019-06-01T05:49:28.980Z,30.09
2019-06-01T05:59:31.520Z,36.05
2019-06-01T06:09:32.932Z,36.16
2019-06-01T06:19:34.394Z,40.08
2019-06-01T06:29:35.815Z,41.09
2019-06-01T06:39:37.267Z,41.71
2019-06-01T06:49:40.630Z,42.78
2019-06-01T06:59:42.065Z,45.14
2019-06-01T07:09:43.548Z,47.51
2019-06-01T07:19:44.978Z,50.95
2019-06-01T07:29:46.413Z,51.67
2019-06-01T07:39:48.073Z,50.25
2019-06-01T07:49:49.714Z,47.00
2019-06-01T07:59:51.169Z,43.33
2019-06-01T08:09:52.632Z,40.70
2019-06-01T08:19:54.080Z,45.93
2019-06-01T08:29:55.513Z,46.93
2019-06-01T08:39:59.268Z,48.20
2019-06-01T08:50:00.353Z,49.73
2019-06-01T09:00:05.976Z,52.52
2019-06-01T09:10:09.736Z,53.55
2019-06-01T09:20:11.800Z,48.54
2019-06-01T09:30:13.842Z,52.69
2019-06-01T09:40:16.288Z,53.33
2019-06-01T09:50:18.131Z,55.52
2019-06-01T10:00:21.506Z,54.86
2019-06-01T10:10:23.181Z,50.97
2019-06-01T10:20:24.828Z,51.79
2019-06-01T10:30:26.293Z,54.17
2019-06-01T10:40:28.216Z,54.66
2019-06-01T10:50:29.633Z,52.83
2019-06-01T11:00:39.690Z,56.92
2019-06-01T11:10:34.981Z,50.18
2019-06-01T11:20:37.313Z,55.32
2019-06-01T11:30:39.979Z,54.34
2019-06-01T11:40:42.848Z,52.22
2019-06-01T11:50:45.333Z,44.17
2019-06-01T12:00:47.193Z,44.19
2019-06-01T12:10:48.632Z,39.12
2019-06-01T12:20:50.079Z,34.47
2019-06-01T12:30:51.518Z,28.08
2019-06-01T12:40:52.963Z,27.94
2019-06-01T12:50:54.401Z,27.31
2019-06-01T13:00:55.882Z,26.87
2019-06-01T13:10:57.308Z,27.11
2019-06-01T13:20:58.740Z,26.31
2019-06-01T13:31:01.581Z,26.19
2019-06-01T13:41:03.546Z,26.84
2019-06-01T13:51:04.977Z,26.27
2019-06-01T14:01:06.478Z,26.11
2019-06-01T14:11:07.888Z,26.05
2019-06-01T14:21:09.438Z,26.78
2019-06-01T14:31:10.860Z,27.28
2019-06-01T14:41:13.397Z,26.35
2019-06-01T14:51:14.950Z,26.56
2019-06-01T15:01:31.311Z,25.55
2019-06-01T15:11:19.973Z,25.26
2019-06-01T15:21:21.512Z,25.47
2019-06-01T15:31:23.070Z,25.11
2019-06-01T15:41:24.588Z,25.28
2019-06-01T15:51:26.007Z,25.70
2019-06-01T16:01:27.541Z,24.88
2019-06-01T16:11:29.250Z,24.91
2019-06-01T16:21:30.785Z,24.39
2019-06-01T16:31:32.332Z,24.54
2019-06-01T16:41:33.997Z,24.72
2019-06-01T16:51:52.432Z,24.24
2019-06-01T17:01:53.997Z,23.96
2019-06-01T17:11:56.648Z,23.71
2019-06-01T17:32:16.855Z,23.67
2019-06-01T17:42:04.623Z,23.69
2019-06-01T17:52:07.682Z,23.61
2019-06-01T18:02:09.911Z,23.53
2019-06-01T18:12:12.351Z,23.31
2019-06-01T18:22:14.114Z,23.05
2019-06-01T18:32:15.667Z,22.55
2019-06-01T18:42:20.269Z,21.55
2019-06-01T18:52:22.894Z,20.35
2019-06-01T19:02:24.679Z,19.77
2019-06-01T19:12:26.444Z,19.20
2019-06-01T19:22:27.963Z,18.15
2019-06-01T19:32:29.423Z,17.59
2019-06-01T19:42:30.873Z,16.82
2019-06-01T19:52:32.644Z,16.08
2019-06-01T20:02:34.632Z,15.66
2019-06-01T20:12:37.147Z,15.22
2019-06-01T20:22:39.817Z,14.84
2019-06-01T20:32:41.408Z,14.44
2019-06-01T20:42:42.820Z,14.07
2019-06-01T20:52:44.358Z,13.76
2019-06-01T21:02:45.931Z,13.49
2019-06-01T21:12:47.438Z,13.32
2019-06-01T21:22:49.185Z,13.07
2019-06-01T21:32:50.835Z,12.74
2019-06-01T21:43:02.983Z,12.61
2019-06-01T21:52:55.742Z,12.32
2019-06-01T22:02:57.508Z,12.05
2019-06-01T22:12:59.058Z,11.93
2019-06-01T22:23:00.493Z,11.72
2019-06-01T22:33:01.941Z,11.62
2019-06-01T22:43:04.201Z,11.49
2019-06-01T22:53:05.757Z,11.38
2019-06-01T23:03:07.285Z,11.12
2019-06-01T23:13:08.726Z,11.00
2019-06-01T23:23:10.156Z,10.77
2019-06-01T23:33:11.604Z,10.77
2019-06-01T23:43:13.056Z,10.82
2019-06-01T23:53:14.584Z,10.71
